createdAt,value
2018-12-03T00:00:23.324Z,7.80
2018-12-03T00:02:59.705Z,9.10
2018-12-03T00:05:26.988Z,8.20
2018-12-03T00:07:54.251Z,8.40
2018-12-03T00:10:21.491Z,9.07
2018-12-03T00:12:48.719Z,10.03
2018-12-03T00:15:15.984Z,10.00
2018-12-03T00:17:43.252Z,10.50
2018-12-03T00:20:10.541Z,10.00
2018-12-03T00:22:37.784Z,9.80
2018-12-03T00:25:06.370Z,10.43
2018-12-03T00:27:33.712Z,10.37
2018-12-03T00:30:01.056Z,10.33
2018-12-03T00:32:28.298Z,12.07
2018-12-03T00:34:55.535Z,10.50
2018-12-03T00:37:22.782Z,10.80
2018-12-03T00:39:50.051Z,10.73
2018-12-03T00:42:17.284Z,12.40
2018-12-03T00:44:44.527Z,10.87
2018-12-03T00:47:11.775Z,12.27
2018-12-03T00:49:39.028Z,10.33
2018-12-03T00:52:06.281Z,9.93
2018-12-03T00:54:33.509Z,11.20
2018-12-03T00:57:00.759Z,11.63
2018-12-03T00:59:28.107Z,11.10
2018-12-03T01:01:55.356Z,13.80
2018-12-03T01:04:22.682Z,12.53
2018-12-03T01:06:49.925Z,14.97
2018-12-03T01:09:17.213Z,13.57
2018-12-03T01:11:44.440Z,14.20
2018-12-03T01:14:11.673Z,13.93
2018-12-03T01:16:38.991Z,13.23
2018-12-03T01:19:06.279Z,12.80
2018-12-03T01:21:33.507Z,13.63
2018-12-03T01:24:00.746Z,13.00
2018-12-03T01:26:27.976Z,12.67
2018-12-03T01:28:55.199Z,12.90
2018-12-03T01:31:22.432Z,11.67
2018-12-03T01:33:49.651Z,10.97
2018-12-03T01:36:16.876Z,12.73
2018-12-03T01:38:44.403Z,10.77
2018-12-03T01:41:11.632Z,10.33
2018-12-03T01:43:38.852Z,9.17
2018-12-03T01:46:06.110Z,9.20
2018-12-03T01:48:33.314Z,9.60
2018-12-03T01:51:00.588Z,12.07
2018-12-03T01:53:27.811Z,8.67
2018-12-03T01:55:55.024Z,8.90
2018-12-03T01:58:22.515Z,7.93
2018-12-03T02:00:49.731Z,6.77
2018-12-03T02:03:16.939Z,8.63
2018-12-03T02:05:44.173Z,8.83
2018-12-03T02:08:11.411Z,7.10
2018-12-03T02:10:38.677Z,8.53
2018-12-03T02:13:05.907Z,10.13
2018-12-03T02:15:33.488Z,9.77
2018-12-03T02:18:00.699Z,7.97
2018-12-03T02:20:27.932Z,9.53
2018-12-03T02:22:55.164Z,7.47
2018-12-03T02:25:22.395Z,8.80
2018-12-03T02:27:49.618Z,7.90
2018-12-03T02:30:17.696Z,8.70
2018-12-03T02:32:44.934Z,6.17
2018-12-03T02:35:19.809Z,7.83
2018-12-03T02:37:47.074Z,9.47
2018-12-03T02:40:15.334Z,8.73
2018-12-03T02:42:42.594Z,9.27
2018-12-03T02:45:10.828Z,8.50
2018-12-03T02:47:38.122Z,5.60
2018-12-03T02:50:10.174Z,8.23
2018-12-03T02:52:37.405Z,11.20
2018-12-03T02:55:06.267Z,8.70
2018-12-03T02:57:33.592Z,4.87
2018-12-03T03:00:00.817Z,7.40
2018-12-03T03:02:28.050Z,5.90
2018-12-03T03:04:55.293Z,5.40
2018-12-03T03:07:22.507Z,5.93
2018-12-03T03:09:49.751Z,5.53
2018-12-03T03:12:16.955Z,6.07
2018-12-03T03:14:44.175Z,5.83
2018-12-03T03:17:11.399Z,5.87
2018-12-03T03:19:38.620Z,6.10
2018-12-03T03:22:05.876Z,8.07
2018-12-03T03:24:33.440Z,8.90
2018-12-03T03:27:00.660Z,8.27
2018-12-03T03:29:27.884Z,11.17
2018-12-03T03:31:55.117Z,10.13
2018-12-03T03:34:22.339Z,11.93
2018-12-03T03:36:49.564Z,12.30
2018-12-03T03:39:16.799Z,13.00
2018-12-03T03:41:44.059Z,13.60
2018-12-03T03:44:11.287Z,11.80
2018-12-03T03:46:38.499Z,11.77
2018-12-03T03:49:05.719Z,11.30
2018-12-03T03:51:33.209Z,12.30
2018-12-03T03:54:00.448Z,11.67
2018-12-03T03:56:27.675Z,12.20
2018-12-03T03:58:54.887Z,10.60
2018-12-03T04:01:22.091Z,10.73
2018-12-03T04:03:49.295Z,11.63
2018-12-03T04:06:16.522Z,10.57
2018-12-03T04:08:43.722Z,10.63
2018-12-03T04:11:10.952Z,13.33
2018-12-03T04:13:38.197Z,10.60
2018-12-03T04:16:05.426Z,9.67
2018-12-03T04:18:32.638Z,10.00
2018-12-03T04:20:59.859Z,13.47
2018-12-03T04:23:27.075Z,10.80
2018-12-03T04:25:54.304Z,10.67
2018-12-03T04:28:21.523Z,11.63
2018-12-03T04:30:48.741Z,13.47
2018-12-03T04:33:15.976Z,12.13
2018-12-03T04:35:43.195Z,11.13
2018-12-03T04:38:10.440Z,11.27
2018-12-03T04:40:37.685Z,12.40
2018-12-03T04:43:04.970Z,10.27
2018-12-03T04:45:32.183Z,10.57
2018-12-03T04:47:59.415Z,11.53
2018-12-03T04:50:27.292Z,9.33
2018-12-03T04:52:54.500Z,10.20
2018-12-03T04:55:21.744Z,9.07
2018-12-03T04:57:49.197Z,8.13
2018-12-03T05:00:17.686Z,8.57
2018-12-03T05:02:49.012Z,9.23
2018-12-03T05:05:16.252Z,11.47
2018-12-03T05:07:43.467Z,8.13
2018-12-03T05:10:14.680Z,8.83
2018-12-03T05:12:42.820Z,9.30
2018-12-03T05:15:11.243Z,7.77
2018-12-03T05:17:38.873Z,9.50
2018-12-03T05:20:08.089Z,8.67
2018-12-03T05:22:35.303Z,10.83
2018-12-03T05:25:02.560Z,9.63
2018-12-03T05:27:29.779Z,9.30
2018-12-03T05:29:57.020Z,9.23
2018-12-03T05:32:24.226Z,9.33
2018-12-03T05:34:51.454Z,11.53
2018-12-03T05:37:18.677Z,10.03
2018-12-03T05:39:45.896Z,6.97
2018-12-03T05:42:13.114Z,7.20
2018-12-03T05:44:40.335Z,10.87
2018-12-03T05:47:07.557Z,12.33
2018-12-03T05:49:34.808Z,11.07
2018-12-03T05:52:02.024Z,12.10
2018-12-03T05:54:29.306Z,9.70
2018-12-03T05:56:56.519Z,9.50
2018-12-03T05:59:23.735Z,10.10
2018-12-03T06:01:50.948Z,7.97
2018-12-03T06:04:18.180Z,12.33
2018-12-03T06:06:45.407Z,15.57
2018-12-03T06:09:12.627Z,13.63
2018-12-03T06:11:39.878Z,12.70
2018-12-03T06:14:07.091Z,14.00
2018-12-03T06:16:34.309Z,15.13
2018-12-03T06:19:01.564Z,13.83
2018-12-03T06:21:28.789Z,12.97
2018-12-03T06:23:56.002Z,11.40
2018-12-03T06:26:23.220Z,14.07
2018-12-03T06:28:50.432Z,18.30
2018-12-03T06:31:17.660Z,10.60
2018-12-03T06:33:44.879Z,11.73
2018-12-03T06:36:12.101Z,16.63
2018-12-03T06:38:39.362Z,13.50
2018-12-03T06:41:06.619Z,15.70
2018-12-03T06:43:33.834Z,12.80
2018-12-03T06:46:01.055Z,15.20
2018-12-03T06:48:28.274Z,14.30
2018-12-03T06:50:55.496Z,10.37
2018-12-03T06:53:22.710Z,12.80
2018-12-03T06:55:49.935Z,15.77
2018-12-03T06:58:17.156Z,14.17
2018-12-03T07:00:46.862Z,13.13
2018-12-03T07:03:14.122Z,12.87
2018-12-03T07:05:41.443Z,8.97
2018-12-03T07:08:09.179Z,10.67
2018-12-03T07:10:36.407Z,12.07
2018-12-03T07:13:06.456Z,17.57
2018-12-03T07:15:35.443Z,16.23
2018-12-03T07:18:02.823Z,13.57
2018-12-03T07:20:30.047Z,13.37
2018-12-03T07:22:57.331Z,12.27
2018-12-03T07:25:24.560Z,16.60
2018-12-03T07:27:51.896Z,19.07
2018-12-03T07:30:21.029Z,13.43
2018-12-03T07:32:48.973Z,17.53
2018-12-03T07:35:17.052Z,17.43
2018-12-03T07:37:44.303Z,17.07
2018-12-03T07:40:12.062Z,14.30
2018-12-03T07:42:40.057Z,14.70
2018-12-03T07:45:10.771Z,21.27
2018-12-03T07:47:38.067Z,15.57
2018-12-03T07:50:08.235Z,14.17
2018-12-03T07:52:36.644Z,18.17
2018-12-03T07:55:03.286Z,18.13
2018-12-03T07:57:30.528Z,16.97
2018-12-03T07:59:57.784Z,18.97
2018-12-03T08:02:25.075Z,19.07
2018-12-03T08:04:52.320Z,15.33
2018-12-03T08:07:19.564Z,19.27
2018-12-03T08:09:46.795Z,20.47
2018-12-03T08:12:14.040Z,19.37
2018-12-03T08:14:41.264Z,17.17
2018-12-03T08:17:08.523Z,18.37
2018-12-03T08:19:35.764Z,18.47
2018-12-03T08:22:03.031Z,13.80
2018-12-03T08:24:30.279Z,20.47
2018-12-03T08:26:57.528Z,16.63
2018-12-03T08:29:24.783Z,28.13
2018-12-03T08:31:52.041Z,15.40
2018-12-03T08:34:19.284Z,24.83
2018-12-03T08:36:46.511Z,15.77
2018-12-03T08:39:13.751Z,24.23
2018-12-03T08:41:41.007Z,16.10
2018-12-03T08:44:08.239Z,18.10
2018-12-03T08:46:35.477Z,18.83
2018-12-03T08:49:02.771Z,25.10
2018-12-03T08:51:30.021Z,18.83
2018-12-03T08:53:57.280Z,20.70
2018-12-03T08:56:24.544Z,20.60
2018-12-03T08:58:51.785Z,19.10
2018-12-03T09:01:20.697Z,24.23
2018-12-03T09:03:52.981Z,19.97
2018-12-03T09:06:20.255Z,24.73
2018-12-03T09:08:48.688Z,20.27
2018-12-03T09:11:17.065Z,18.50
2018-12-03T09:13:44.299Z,21.33
2018-12-03T09:16:11.550Z,17.63
2018-12-03T09:18:39.855Z,21.03
2018-12-03T09:21:10.389Z,20.13
2018-12-03T09:23:37.819Z,17.43
2018-12-03T09:26:06.316Z,16.10
2018-12-03T09:28:34.927Z,22.33
2018-12-03T09:31:02.406Z,14.30
2018-12-03T09:33:30.116Z,16.90
2018-12-03T09:35:57.346Z,20.63
2018-12-03T09:38:24.593Z,22.03
2018-12-03T09:40:57.001Z,20.47
2018-12-03T09:43:24.227Z,16.33
2018-12-03T09:45:51.479Z,17.10
2018-12-03T09:48:18.711Z,16.73
2018-12-03T09:50:45.976Z,14.27
2018-12-03T09:53:13.220Z,17.20
2018-12-03T09:55:40.484Z,19.47
2018-12-03T09:58:11.033Z,15.53
2018-12-03T10:00:38.309Z,21.80
2018-12-03T10:03:12.402Z,21.83
2018-12-03T10:05:43.354Z,19.63
2018-12-03T10:08:10.591Z,23.20
2018-12-03T10:10:37.846Z,18.90
2018-12-03T10:13:06.835Z,15.30
2018-12-03T10:15:34.135Z,16.63
2018-12-03T10:18:01.412Z,24.57
2018-12-03T10:20:28.700Z,19.33
2018-12-03T10:22:55.937Z,19.73
2018-12-03T10:25:23.212Z,15.63
2018-12-03T10:27:50.510Z,18.87
2018-12-03T10:30:19.086Z,18.73
2018-12-03T10:32:47.703Z,17.73
2018-12-03T10:35:14.987Z,18.50
2018-12-03T10:37:42.216Z,14.93
2018-12-03T10:40:18.908Z,22.20
2018-12-03T10:42:47.067Z,22.37
2018-12-03T10:45:19.148Z,14.90
2018-12-03T10:47:46.387Z,16.00
2018-12-03T10:50:15.687Z,18.30
2018-12-03T10:52:42.964Z,19.17
2018-12-03T10:55:11.011Z,20.83
2018-12-03T10:57:38.911Z,19.03
2018-12-03T11:00:11.821Z,20.53
2018-12-03T11:02:44.961Z,19.53
2018-12-03T11:05:18.119Z,18.07
2018-12-03T11:07:45.403Z,20.53
2018-12-03T11:10:12.660Z,13.47
2018-12-03T11:12:39.972Z,20.17
2018-12-03T11:15:10.939Z,19.03
2018-12-03T11:17:38.208Z,20.37
2018-12-03T11:20:06.260Z,20.37
2018-12-03T11:22:33.516Z,15.30
2018-12-03T11:25:00.788Z,17.93
2018-12-03T11:27:32.826Z,20.07
2018-12-03T11:30:00.103Z,14.37
2018-12-03T11:32:27.358Z,21.47
2018-12-03T11:34:54.618Z,19.10
2018-12-03T11:37:21.893Z,13.90
2018-12-03T11:39:56.366Z,14.50
2018-12-03T11:42:25.726Z,17.30
2018-12-03T11:44:52.979Z,13.77
2018-12-03T11:47:20.257Z,15.03
2018-12-03T11:49:47.533Z,21.03
2018-12-03T11:52:14.796Z,13.43
2018-12-03T11:54:42.021Z,21.67
2018-12-03T11:57:09.295Z,15.77
2018-12-03T11:59:36.549Z,18.87
2018-12-03T12:02:04.253Z,18.13
2018-12-03T12:04:31.498Z,14.17
2018-12-03T12:06:58.731Z,18.90
2018-12-03T12:09:25.996Z,10.33
2018-12-03T12:11:53.236Z,13.13
2018-12-03T12:14:23.985Z,13.90
2018-12-03T12:16:51.226Z,16.90
2018-12-03T12:19:18.476Z,10.83
2018-12-03T12:21:45.745Z,10.70
2018-12-03T12:24:13.024Z,14.50
2018-12-03T12:26:40.282Z,10.73
2018-12-03T12:29:07.973Z,14.03
2018-12-03T12:31:35.209Z,12.47
2018-12-03T12:34:02.470Z,10.10
2018-12-03T12:36:29.772Z,13.00
2018-12-03T12:38:57.057Z,10.67
2018-12-03T12:41:24.271Z,10.37
2018-12-03T12:43:51.555Z,9.33
2018-12-03T12:46:22.083Z,9.33
2018-12-03T12:48:49.355Z,14.33
2018-12-03T12:51:16.626Z,12.33
2018-12-03T12:53:43.907Z,12.03
2018-12-03T12:56:11.167Z,11.50
2018-12-03T12:58:38.439Z,11.03
2018-12-03T13:01:05.950Z,15.10
2018-12-03T13:03:33.206Z,12.27
2018-12-03T13:06:00.483Z,12.63
2018-12-03T13:08:27.720Z,11.93
2018-12-03T13:10:54.984Z,11.10
2018-12-03T13:13:22.271Z,8.80
2018-12-03T13:15:49.522Z,8.67
2018-12-03T13:18:16.756Z,14.80
2018-12-03T13:20:43.969Z,6.73
2018-12-03T13:23:11.251Z,11.40
2018-12-03T13:25:38.492Z,9.17
2018-12-03T13:28:05.758Z,7.63
2018-12-03T13:30:33.003Z,10.27
2018-12-03T13:33:00.256Z,10.03
2018-12-03T13:35:27.528Z,10.03
2018-12-03T13:37:54.770Z,14.53
2018-12-03T13:40:21.986Z,14.43
2018-12-03T13:42:49.455Z,7.50
2018-12-03T13:45:18.903Z,14.77
2018-12-03T13:47:47.138Z,8.23
2018-12-03T13:50:15.862Z,9.70
2018-12-03T13:52:43.600Z,10.30
2018-12-03T13:55:12.615Z,9.97
2018-12-03T13:57:40.155Z,7.13
2018-12-03T14:00:12.763Z,11.47
2018-12-03T14:02:40.008Z,9.00
2018-12-03T14:05:08.892Z,9.30
2018-12-03T14:07:41.880Z,11.60
2018-12-03T14:10:19.260Z,12.50
2018-12-03T14:12:54.409Z,12.20
2018-12-03T14:17:37.424Z,7.37
2018-12-03T14:20:06.123Z,12.77
2018-12-03T14:22:37.045Z,10.17
2018-12-03T14:25:05.224Z,7.57
2018-12-03T14:27:32.611Z,9.73
2018-12-03T14:29:59.839Z,7.03
2018-12-03T14:32:27.086Z,10.10
2018-12-03T14:34:54.333Z,10.40
2018-12-03T14:37:21.584Z,9.37
2018-12-03T14:39:48.835Z,6.83
2018-12-03T14:42:16.087Z,8.00
2018-12-03T14:44:43.319Z,9.83
2018-12-03T14:47:10.559Z,7.93
2018-12-03T14:49:37.902Z,8.63
2018-12-03T14:52:05.221Z,8.73
2018-12-03T14:54:32.457Z,7.47
2018-12-03T14:56:59.758Z,6.83
2018-12-03T14:59:27.087Z,10.23
2018-12-03T15:01:54.418Z,10.33
2018-12-03T15:04:21.655Z,9.50
2018-12-03T15:06:48.880Z,8.00
2018-12-03T15:09:50.824Z,9.50
2018-12-03T15:12:16.864Z,12.83
2018-12-03T15:14:42.873Z,7.87
2018-12-03T15:17:08.891Z,8.87
2018-12-03T15:19:34.917Z,11.13
2018-12-03T15:22:00.927Z,9.40
2018-12-03T15:24:26.952Z,11.90
2018-12-03T15:26:53.247Z,9.40
2018-12-03T15:29:19.396Z,10.73
2018-12-03T15:31:45.432Z,9.73
2018-12-03T15:34:11.609Z,12.27
2018-12-03T15:36:37.655Z,8.53
2018-12-03T15:39:05.406Z,12.50
2018-12-03T15:41:31.431Z,9.87
2018-12-03T15:43:57.576Z,9.87
2018-12-03T15:46:23.599Z,10.27
2018-12-03T15:48:49.620Z,10.13
2018-12-03T15:51:22.740Z,6.57
2018-12-03T15:53:48.794Z,11.57
2018-12-03T15:56:14.924Z,10.53
2018-12-03T15:58:40.951Z,13.33
2018-12-03T16:01:07.102Z,8.83
2018-12-03T16:03:33.217Z,7.43
2018-12-03T16:05:59.356Z,7.10
2018-12-03T16:08:25.372Z,11.30
2018-12-03T16:10:51.388Z,12.47
2018-12-03T16:13:17.640Z,5.60
2018-12-03T16:15:43.652Z,7.57
2018-12-03T16:18:09.664Z,6.80
2018-12-03T16:20:35.704Z,9.23
2018-12-03T16:23:01.841Z,6.57
2018-12-03T16:25:27.866Z,10.07
2018-12-03T16:27:53.996Z,8.10
2018-12-03T16:30:20.215Z,7.73
2018-12-03T16:32:46.336Z,8.03
2018-12-03T16:35:12.363Z,8.27
2018-12-03T16:37:38.495Z,9.73
2018-12-03T16:40:04.619Z,9.17
2018-12-03T16:42:30.745Z,9.80
2018-12-03T16:44:56.891Z,9.47
2018-12-03T16:47:22.915Z,9.50
2018-12-03T16:49:48.937Z,6.40
2018-12-03T16:55:16.870Z,6.40
2018-12-03T16:57:42.887Z,6.27
2018-12-03T17:00:09.331Z,9.87
2018-12-03T17:02:35.451Z,6.33
2018-12-03T17:05:01.598Z,9.20
2018-12-03T17:07:27.716Z,8.30
2018-12-03T17:09:53.849Z,8.03
2018-12-03T17:12:19.993Z,7.83
2018-12-03T17:14:46.014Z,9.07
2018-12-03T17:17:12.035Z,8.67
2018-12-03T17:19:38.064Z,7.20
2018-12-03T17:22:04.285Z,9.30
2018-12-03T17:24:30.316Z,9.53
2018-12-03T17:26:56.552Z,10.53
2018-12-03T17:29:22.669Z,8.93
2018-12-03T17:31:48.913Z,8.07
2018-12-03T17:34:15.153Z,7.40
2018-12-03T17:36:41.279Z,9.80
2018-12-03T17:39:07.303Z,11.33
2018-12-03T17:41:33.436Z,7.60
2018-12-03T17:43:59.467Z,9.03
2018-12-03T17:46:25.592Z,16.60
2018-12-03T17:48:51.623Z,8.53
2018-12-03T17:51:17.652Z,8.77
2018-12-03T17:53:43.671Z,11.60
2018-12-03T17:56:09.822Z,14.50
2018-12-03T17:58:35.976Z,11.53
2018-12-03T18:01:02.156Z,11.47
2018-12-03T18:03:28.204Z,9.10
2018-12-03T18:05:54.240Z,10.50
2018-12-03T18:08:20.289Z,13.73
2018-12-03T18:10:46.328Z,10.87
2018-12-03T18:13:12.351Z,12.13
2018-12-03T18:15:38.475Z,11.17
2018-12-03T18:18:04.507Z,12.10
2018-12-03T18:20:30.640Z,11.60
2018-12-03T18:22:56.920Z,10.30
2018-12-03T18:25:23.053Z,13.03
2018-12-03T18:27:49.060Z,8.80
2018-12-03T18:30:15.125Z,9.87
2018-12-03T18:32:41.315Z,12.07
2018-12-03T18:35:07.560Z,12.13
2018-12-03T18:37:33.691Z,10.90
2018-12-03T18:39:59.727Z,11.63
2018-12-03T18:42:25.739Z,10.60
2018-12-03T18:44:51.759Z,11.27
2018-12-03T18:47:17.820Z,11.47
2018-12-03T18:49:44.027Z,13.70
2018-12-03T18:52:10.062Z,14.33
2018-12-03T18:54:36.115Z,20.27
2018-12-03T18:57:02.150Z,13.17
2018-12-03T18:59:28.281Z,18.37
2018-12-03T19:04:56.124Z,14.33
2018-12-03T19:07:22.140Z,17.27
2018-12-03T19:09:48.171Z,16.17
2018-12-03T19:12:14.187Z,15.03
2018-12-03T19:14:40.307Z,13.27
2018-12-03T19:17:06.332Z,13.73
2018-12-03T19:19:32.348Z,13.47
2018-12-03T19:21:58.419Z,11.97
2018-12-03T19:24:24.435Z,11.87
2018-12-03T19:26:50.448Z,13.47
2018-12-03T19:29:16.472Z,15.07
2018-12-03T19:31:42.503Z,15.97
2018-12-03T19:34:08.522Z,15.33
2018-12-03T19:36:34.555Z,17.30
2018-12-03T19:39:00.693Z,10.70
2018-12-03T19:41:26.781Z,15.50
2018-12-03T19:43:52.812Z,18.63
2018-12-03T19:46:18.850Z,9.20
2018-12-03T19:48:44.865Z,15.17
2018-12-03T19:51:10.887Z,14.50
2018-12-03T19:53:36.923Z,14.07
2018-12-03T19:56:03.052Z,16.40
2018-12-03T19:58:29.183Z,19.03
2018-12-03T20:00:55.426Z,14.73
2018-12-03T20:03:21.443Z,16.17
2018-12-03T20:05:47.461Z,13.30
2018-12-03T20:08:13.501Z,13.20
2018-12-03T20:10:39.552Z,13.57
2018-12-03T20:13:05.567Z,13.67
2018-12-03T20:15:31.743Z,10.93
2018-12-03T20:17:58.035Z,15.83
2018-12-03T20:20:24.272Z,15.97
2018-12-03T20:22:51.111Z,17.30
2018-12-03T20:25:17.402Z,16.60
2018-12-03T20:27:43.707Z,17.50
2018-12-03T20:30:13.740Z,15.07
2018-12-03T20:32:39.964Z,14.83
2018-12-03T20:35:06.604Z,15.60
2018-12-03T20:37:32.948Z,16.63
2018-12-03T20:40:00.804Z,17.63
2018-12-03T20:42:26.961Z,18.67
2018-12-03T20:44:54.205Z,17.87
2018-12-03T20:47:20.238Z,16.00
2018-12-03T20:49:46.272Z,13.23
2018-12-03T20:52:12.280Z,21.80
2018-12-03T20:54:38.298Z,14.73
2018-12-03T20:57:04.335Z,16.97
2018-12-03T20:59:30.343Z,15.73
2018-12-03T21:01:56.378Z,11.77
2018-12-03T21:04:22.391Z,12.83
2018-12-03T21:06:48.411Z,14.17
2018-12-03T21:09:14.433Z,15.57
2018-12-03T21:11:41.073Z,12.27
2018-12-03T21:14:07.100Z,12.30
2018-12-03T21:16:33.115Z,12.77
2018-12-03T21:18:59.244Z,11.83
2018-12-03T21:21:25.263Z,11.17
2018-12-03T21:23:51.282Z,16.33
2018-12-03T21:26:17.320Z,14.70
2018-12-03T21:28:43.441Z,14.40
2018-12-03T21:31:09.444Z,12.90
2018-12-03T21:33:35.469Z,6.40
2018-12-03T21:36:01.519Z,12.00
2018-12-03T21:38:27.540Z,11.87
2018-12-03T21:40:53.556Z,10.90
2018-12-03T21:43:19.687Z,11.33
2018-12-03T21:45:45.718Z,8.90
2018-12-03T21:48:18.530Z,11.60
2018-12-03T21:50:44.564Z,9.63
2018-12-03T21:53:10.579Z,10.63
2018-12-03T21:55:36.691Z,7.90
2018-12-03T21:58:02.815Z,5.00
2018-12-03T22:00:28.838Z,5.13
2018-12-03T22:02:54.863Z,4.93
2018-12-03T22:05:21.000Z,5.50
2018-12-03T22:07:47.020Z,4.33
2018-12-03T22:10:13.255Z,3.63
2018-12-03T22:12:39.275Z,5.90
2018-12-03T22:15:05.500Z,4.80
2018-12-03T22:17:31.512Z,3.10
2018-12-03T22:19:57.872Z,5.30
2018-12-03T22:22:24.101Z,4.07
2018-12-03T22:24:50.109Z,5.23
2018-12-03T22:27:16.124Z,5.63
2018-12-03T22:29:42.142Z,4.97
2018-12-03T22:32:08.169Z,3.43
2018-12-03T22:34:34.178Z,3.60
2018-12-03T22:37:00.187Z,3.07
2018-12-03T22:39:26.208Z,4.80
2018-12-03T22:41:52.627Z,5.37
2018-12-03T22:44:18.643Z,4.13
2018-12-03T22:46:44.780Z,4.43
2018-12-03T22:49:10.787Z,4.93
2018-12-03T22:51:36.808Z,3.10
2018-12-03T22:54:02.916Z,2.90
2018-12-03T22:56:28.940Z,2.50
2018-12-03T22:58:54.951Z,9.30
2018-12-03T23:01:22.307Z,3.53
2018-12-03T23:03:48.443Z,4.60
2018-12-03T23:06:14.564Z,6.13
2018-12-03T23:08:40.675Z,7.83
2018-12-03T23:11:06.699Z,5.13
2018-12-03T23:13:32.830Z,6.33
2018-12-03T23:15:58.852Z,3.93
2018-12-03T23:18:24.871Z,6.07
2018-12-03T23:20:50.897Z,4.43
2018-12-03T23:23:16.919Z,6.80
2018-12-03T23:25:42.936Z,6.73
2018-12-03T23:28:08.950Z,4.27
2018-12-03T23:30:35.119Z,5.13
2018-12-03T23:36:02.935Z,3.70
2018-12-03T23:38:29.071Z,4.57
2018-12-03T23:40:55.082Z,5.53
2018-12-03T23:43:21.148Z,8.43
2018-12-03T23:45:47.271Z,3.63
2018-12-03T23:48:13.319Z,6.27
2018-12-03T23:50:39.748Z,4.07
2018-12-03T23:53:05.865Z,5.83
2018-12-03T23:55:31.876Z,6.13
2018-12-03T23:57:58.021Z,5.07
